sensor_id;sensor_type;location;lat;lon;timestamp;P1;durP1;ratioP1;P2;durP2;ratioP2
55835;SDS011;66908;50.988;4.780;2023-03-01T00:01:26;15.35;;;9.77;;
55835;SDS011;66908;50.988;4.780;2023-03-01T00:03:54;14.15;;;9.75;;
55835;SDS011;66908;50.988;4.780;2023-03-01T00:06:21;17.08;;;10.40;;
55835;SDS011;66908;50.988;4.780;2023-03-01T00:08:47;15.70;;;11.13;;
55835;SDS011;66908;50.988;4.780;2023-03-01T00:13:39;12.38;;;9.38;;
55835;SDS011;66908;50.988;4.780;2023-03-01T00:16:07;15.38;;;10.23;;
55835;SDS011;66908;50.988;4.780;2023-03-01T00:18:49;13.90;;;9.52;;
55835;SDS011;66908;50.988;4.780;2023-03-01T00:21:16;11.25;;;9.02;;
55835;SDS011;66908;50.988;4.780;2023-03-01T00:23:42;19.30;;;10.50;;
55835;SDS011;66908;50.988;4.780;2023-03-01T00:26:09;12.50;;;9.30;;
55835;SDS011;66908;50.988;4.780;2023-03-01T00:28:37;12.82;;;9.25;;
55835;SDS011;66908;50.988;4.780;2023-03-01T00:31:08;15.05;;;10.45;;
55835;SDS011;66908;50.988;4.780;2023-03-01T00:33:38;22.00;;;11.45;;
55835;SDS011;66908;50.988;4.780;2023-03-01T00:36:05;14.25;;;9.63;;
55835;SDS011;66908;50.988;4.780;2023-03-01T00:38:35;12.33;;;9.10;;
55835;SDS011;66908;50.988;4.780;2023-03-01T00:41:05;13.93;;;9.55;;
55835;SDS011;66908;50.988;4.780;2023-03-01T00:43:34;11.10;;;9.85;;
55835;SDS011;66908;50.988;4.780;2023-03-01T00:46:05;16.45;;;10.60;;
55835;SDS011;66908;50.988;4.780;2023-03-01T00:48:33;15.20;;;9.73;;
55835;SDS011;66908;50.988;4.780;2023-03-01T00:51:06;13.65;;;10.40;;
55835;SDS011;66908;50.988;4.780;2023-03-01T00:53:33;13.88;;;9.95;;
55835;SDS011;66908;50.988;4.780;2023-03-01T00:56:00;16.07;;;10.17;;
55835;SDS011;66908;50.988;4.780;2023-03-01T00:58:26;12.82;;;10.68;;
55835;SDS011;66908;50.988;4.780;2023-03-01T01:00:52;14.05;;;9.73;;
55835;SDS011;66908;50.988;4.780;2023-03-01T01:03:18;17.00;;;10.30;;
55835;SDS011;66908;50.988;4.780;2023-03-01T01:05:44;15.25;;;10.35;;
55835;SDS011;66908;50.988;4.780;2023-03-01T01:08:10;15.05;;;9.32;;
55835;SDS011;66908;50.988;4.780;2023-03-01T01:10:37;15.35;;;10.55;;
55835;SDS011;66908;50.988;4.780;2023-03-01T01:13:03;13.80;;;9.68;;
55835;SDS011;66908;50.988;4.780;2023-03-01T01:15:29;16.10;;;9.85;;
55835;SDS011;66908;50.988;4.780;2023-03-01T01:17:58;14.75;;;9.93;;
55835;SDS011;66908;50.988;4.780;2023-03-01T01:20:24;16.60;;;9.80;;
55835;SDS011;66908;50.988;4.780;2023-03-01T01:22:50;15.88;;;10.20;;
55835;SDS011;66908;50.988;4.780;2023-03-01T01:25:16;15.90;;;9.90;;
55835;SDS011;66908;50.988;4.780;2023-03-01T01:27:42;13.98;;;9.68;;
55835;SDS011;66908;50.988;4.780;2023-03-01T01:30:08;13.38;;;9.75;;
55835;SDS011;66908;50.988;4.780;2023-03-01T01:32:34;15.50;;;9.32;;
55835;SDS011;66908;50.988;4.780;2023-03-01T01:35:00;15.90;;;10.00;;
55835;SDS011;66908;50.988;4.780;2023-03-01T01:37:26;17.65;;;9.80;;
55835;SDS011;66908;50.988;4.780;2023-03-01T01:39:59;15.57;;;9.43;;
55835;SDS011;66908;50.988;4.780;2023-03-01T01:42:29;14.55;;;9.30;;
55835;SDS011;66908;50.988;4.780;2023-03-01T01:48:04;13.80;;;9.52;;
55835;SDS011;66908;50.988;4.780;2023-03-01T01:50:35;17.30;;;9.18;;
55835;SDS011;66908;50.988;4.780;2023-03-01T01:53:10;12.43;;;9.02;;
55835;SDS011;66908;50.988;4.780;2023-03-01T01:55:40;14.75;;;8.85;;
55835;SDS011;66908;50.988;4.780;2023-03-01T01:58:10;20.13;;;8.60;;
55835;SDS011;66908;50.988;4.780;2023-03-01T02:00:39;12.77;;;9.10;;
55835;SDS011;66908;50.988;4.780;2023-03-01T02:03:10;14.65;;;9.93;;
55835;SDS011;66908;50.988;4.780;2023-03-01T02:05:41;16.15;;;9.20;;
55835;SDS011;66908;50.988;4.780;2023-03-01T02:08:12;15.55;;;9.55;;
55835;SDS011;66908;50.988;4.780;2023-03-01T02:10:40;16.35;;;9.00;;
55835;SDS011;66908;50.988;4.780;2023-03-01T02:13:06;16.02;;;9.35;;
55835;SDS011;66908;50.988;4.780;2023-03-01T02:15:33;12.23;;;8.77;;
55835;SDS011;66908;50.988;4.780;2023-03-01T02:18:00;12.77;;;8.65;;
55835;SDS011;66908;50.988;4.780;2023-03-01T02:23:05;11.43;;;9.07;;
55835;SDS011;66908;50.988;4.780;2023-03-01T02:30:45;14.55;;;8.85;;
55835;SDS011;66908;50.988;4.780;2023-03-01T02:33:32;13.40;;;8.98;;
55835;SDS011;66908;50.988;4.780;2023-03-01T02:36:01;13.50;;;8.88;;
55835;SDS011;66908;50.988;4.780;2023-03-01T02:38:51;11.80;;;8.50;;
55835;SDS011;66908;50.988;4.780;2023-03-01T02:41:20;14.00;;;8.57;;
55835;SDS011;66908;50.988;4.780;2023-03-01T02:43:48;16.58;;;8.68;;
55835;SDS011;66908;50.988;4.780;2023-03-01T02:46:18;13.95;;;9.57;;
55835;SDS011;66908;50.988;4.780;2023-03-01T02:48:50;17.77;;;10.43;;
55835;SDS011;66908;50.988;4.780;2023-03-01T02:51:42;13.25;;;8.98;;
55835;SDS011;66908;50.988;4.780;2023-03-01T02:54:40;15.55;;;9.73;;
55835;SDS011;66908;50.988;4.780;2023-03-01T02:57:11;18.23;;;9.40;;
55835;SDS011;66908;50.988;4.780;2023-03-01T02:59:37;15.60;;;9.80;;
55835;SDS011;66908;50.988;4.780;2023-03-01T03:02:05;13.85;;;8.98;;
55835;SDS011;66908;50.988;4.780;2023-03-01T03:04:32;14.98;;;9.13;;
55835;SDS011;66908;50.988;4.780;2023-03-01T03:06:59;18.73;;;10.15;;
55835;SDS011;66908;50.988;4.780;2023-03-01T03:09:25;13.30;;;8.52;;
55835;SDS011;66908;50.988;4.780;2023-03-01T03:11:51;14.20;;;9.52;;
55835;SDS011;66908;50.988;4.780;2023-03-01T03:14:16;15.25;;;10.15;;
55835;SDS011;66908;50.988;4.780;2023-03-01T03:16:44;15.93;;;9.98;;
55835;SDS011;66908;50.988;4.780;2023-03-01T03:19:12;15.90;;;9.30;;
55835;SDS011;66908;50.988;4.780;2023-03-01T03:21:38;12.40;;;8.88;;
55835;SDS011;66908;50.988;4.780;2023-03-01T03:24:04;13.55;;;9.13;;
55835;SDS011;66908;50.988;4.780;2023-03-01T03:26:30;14.00;;;9.50;;
55835;SDS011;66908;50.988;4.780;2023-03-01T03:28:56;13.95;;;9.35;;
55835;SDS011;66908;50.988;4.780;2023-03-01T03:31:22;16.63;;;9.95;;
55835;SDS011;66908;50.988;4.780;2023-03-01T03:33:48;17.02;;;9.00;;
55835;SDS011;66908;50.988;4.780;2023-03-01T03:36:18;12.75;;;9.30;;
55835;SDS011;66908;50.988;4.780;2023-03-01T03:38:46;16.58;;;10.68;;
55835;SDS011;66908;50.988;4.780;2023-03-01T03:41:12;19.75;;;10.55;;
55835;SDS011;66908;50.988;4.780;2023-03-01T03:43:39;17.13;;;9.95;;
55835;SDS011;66908;50.988;4.780;2023-03-01T03:46:07;14.25;;;10.25;;
55835;SDS011;66908;50.988;4.780;2023-03-01T03:48:40;15.80;;;9.90;;
55835;SDS011;66908;50.988;4.780;2023-03-01T03:51:09;14.88;;;9.93;;
55835;SDS011;66908;50.988;4.780;2023-03-01T03:53:39;12.82;;;9.25;;
55835;SDS011;66908;50.988;4.780;2023-03-01T03:56:06;16.33;;;9.98;;
55835;SDS011;66908;50.988;4.780;2023-03-01T03:58:33;14.48;;;9.40;;
55835;SDS011;66908;50.988;4.780;2023-03-01T04:00:59;17.73;;;9.65;;
55835;SDS011;66908;50.988;4.780;2023-03-01T04:03:28;14.77;;;9.82;;
55835;SDS011;66908;50.988;4.780;2023-03-01T04:05:56;14.55;;;9.73;;
55835;SDS011;66908;50.988;4.780;2023-03-01T04:10:50;14.20;;;9.00;;
55835;SDS011;66908;50.988;4.780;2023-03-01T04:13:19;18.17;;;9.95;;
55835;SDS011;66908;50.988;4.780;2023-03-01T04:15:48;17.70;;;9.75;;
55835;SDS011;66908;50.988;4.780;2023-03-01T04:18:18;13.77;;;8.70;;
55835;SDS011;66908;50.988;4.780;2023-03-01T04:20:46;13.40;;;8.73;;
55835;SDS011;66908;50.988;4.780;2023-03-01T04:23:16;19.42;;;9.80;;
55835;SDS011;66908;50.988;4.780;2023-03-01T04:28:19;15.18;;;9.70;;
55835;SDS011;66908;50.988;4.780;2023-03-01T04:30:46;16.40;;;9.73;;
55835;SDS011;66908;50.988;4.780;2023-03-01T04:33:12;15.15;;;8.93;;
55835;SDS011;66908;50.988;4.780;2023-03-01T04:35:38;14.75;;;10.20;;
55835;SDS011;66908;50.988;4.780;2023-03-01T04:38:04;12.77;;;9.00;;
55835;SDS011;66908;50.988;4.780;2023-03-01T04:40:30;14.75;;;9.82;;
55835;SDS011;66908;50.988;4.780;2023-03-01T04:42:56;12.70;;;9.10;;
55835;SDS011;66908;50.988;4.780;2023-03-01T04:45:22;13.85;;;9.25;;
55835;SDS011;66908;50.988;4.780;2023-03-01T04:47:48;14.27;;;9.40;;
55835;SDS011;66908;50.988;4.780;2023-03-01T04:50:17;15.75;;;9.85;;
55835;SDS011;66908;50.988;4.780;2023-03-01T04:52:48;12.57;;;8.85;;
55835;SDS011;66908;50.988;4.780;2023-03-01T04:55:14;15.15;;;9.70;;
55835;SDS011;66908;50.988;4.780;2023-03-01T04:57:40;16.38;;;9.55;;
55835;SDS011;66908;50.988;4.780;2023-03-01T05:00:07;13.32;;;9.10;;
55835;SDS011;66908;50.988;4.780;2023-03-01T05:02:54;19.27;;;9.57;;
55835;SDS011;66908;50.988;4.780;2023-03-01T05:05:24;12.07;;;9.02;;
55835;SDS011;66908;50.988;4.780;2023-03-01T05:07:59;34.33;;;9.90;;
55835;SDS011;66908;50.988;4.780;2023-03-01T05:10:28;13.43;;;9.38;;
55835;SDS011;66908;50.988;4.780;2023-03-01T05:12:56;17.00;;;9.85;;
55835;SDS011;66908;50.988;4.780;2023-03-01T05:15:23;15.20;;;9.40;;
55835;SDS011;66908;50.988;4.780;2023-03-01T05:17:53;15.52;;;9.85;;
55835;SDS011;66908;50.988;4.780;2023-03-01T05:20:20;16.33;;;9.88;;
55835;SDS011;66908;50.988;4.780;2023-03-01T05:22:50;15.93;;;8.85;;
55835;SDS011;66908;50.988;4.780;2023-03-01T05:27:43;16.83;;;10.98;;
55835;SDS011;66908;50.988;4.780;2023-03-01T05:30:09;14.95;;;10.27;;
55835;SDS011;66908;50.988;4.780;2023-03-01T05:32:45;15.75;;;9.50;;
55835;SDS011;66908;50.988;4.780;2023-03-01T05:35:13;14.15;;;9.32;;
55835;SDS011;66908;50.988;4.780;2023-03-01T05:37:41;15.95;;;9.93;;
55835;SDS011;66908;50.988;4.780;2023-03-01T05:40:12;14.10;;;9.65;;
55835;SDS011;66908;50.988;4.780;2023-03-01T05:42:55;13.73;;;9.50;;
55835;SDS011;66908;50.988;4.780;2023-03-01T05:45:23;12.93;;;9.77;;
55835;SDS011;66908;50.988;4.780;2023-03-01T05:47:50;15.05;;;9.48;;
55835;SDS011;66908;50.988;4.780;2023-03-01T05:50:20;15.38;;;9.65;;
55835;SDS011;66908;50.988;4.780;2023-03-01T05:52:49;17.00;;;10.10;;
55835;SDS011;66908;50.988;4.780;2023-03-01T05:55:28;16.73;;;9.38;;
55835;SDS011;66908;50.988;4.780;2023-03-01T05:57:57;16.15;;;9.95;;
55835;SDS011;66908;50.988;4.780;2023-03-01T06:00:24;16.33;;;10.32;;
55835;SDS011;66908;50.988;4.780;2023-03-01T06:02:50;16.13;;;9.88;;
55835;SDS011;66908;50.988;4.780;2023-03-01T06:05:17;15.80;;;9.57;;
55835;SDS011;66908;50.988;4.780;2023-03-01T06:07:43;17.67;;;11.25;;
55835;SDS011;66908;50.988;4.780;2023-03-01T06:10:09;15.48;;;10.40;;
55835;SDS011;66908;50.988;4.780;2023-03-01T06:12:37;17.60;;;9.63;;
55835;SDS011;66908;50.988;4.780;2023-03-01T06:15:04;16.95;;;10.27;;
55835;SDS011;66908;50.988;4.780;2023-03-01T06:17:31;17.90;;;11.02;;
55835;SDS011;66908;50.988;4.780;2023-03-01T06:20:03;16.45;;;10.18;;
55835;SDS011;66908;50.988;4.780;2023-03-01T06:22:30;16.45;;;10.38;;
55835;SDS011;66908;50.988;4.780;2023-03-01T06:24:56;27.27;;;14.07;;
55835;SDS011;66908;50.988;4.780;2023-03-01T06:27:22;20.33;;;11.02;;
55835;SDS011;66908;50.988;4.780;2023-03-01T06:29:48;14.93;;;9.95;;
55835;SDS011;66908;50.988;4.780;2023-03-01T06:32:14;16.17;;;9.98;;
55835;SDS011;66908;50.988;4.780;2023-03-01T06:34:40;15.45;;;10.05;;
55835;SDS011;66908;50.988;4.780;2023-03-01T06:37:06;14.20;;;10.38;;
55835;SDS011;66908;50.988;4.780;2023-03-01T06:39:32;14.88;;;11.05;;
55835;SDS011;66908;50.988;4.780;2023-03-01T06:41:58;17.95;;;10.80;;
55835;SDS011;66908;50.988;4.780;2023-03-01T06:44:25;17.00;;;11.07;;
55835;SDS011;66908;50.988;4.780;2023-03-01T06:46:51;15.60;;;10.60;;
55835;SDS011;66908;50.988;4.780;2023-03-01T06:49:17;16.65;;;10.45;;
55835;SDS011;66908;50.988;4.780;2023-03-01T06:51:44;15.55;;;10.35;;
55835;SDS011;66908;50.988;4.780;2023-03-01T06:54:11;22.08;;;10.55;;
55835;SDS011;66908;50.988;4.780;2023-03-01T06:56:37;17.80;;;11.45;;
55835;SDS011;66908;50.988;4.780;2023-03-01T06:59:02;16.88;;;10.68;;
55835;SDS011;66908;50.988;4.780;2023-03-01T07:01:29;19.02;;;10.68;;
55835;SDS011;66908;50.988;4.780;2023-03-01T07:03:55;17.40;;;10.45;;
55835;SDS011;66908;50.988;4.780;2023-03-01T07:06:21;19.83;;;10.88;;
55835;SDS011;66908;50.988;4.780;2023-03-01T07:08:47;17.95;;;10.95;;
55835;SDS011;66908;50.988;4.780;2023-03-01T07:11:13;17.52;;;11.07;;
55835;SDS011;66908;50.988;4.780;2023-03-01T07:13:40;18.67;;;11.07;;
55835;SDS011;66908;50.988;4.780;2023-03-01T07:16:06;18.17;;;10.85;;
55835;SDS011;66908;50.988;4.780;2023-03-01T07:18:32;16.92;;;10.23;;
55835;SDS011;66908;50.988;4.780;2023-03-01T07:21:03;17.88;;;11.02;;
55835;SDS011;66908;50.988;4.780;2023-03-01T07:23:32;17.77;;;10.38;;
55835;SDS011;66908;50.988;4.780;2023-03-01T07:25:59;16.70;;;11.00;;
55835;SDS011;66908;50.988;4.780;2023-03-01T07:28:25;22.73;;;12.48;;
55835;SDS011;66908;50.988;4.780;2023-03-01T07:30:52;19.55;;;11.38;;
55835;SDS011;66908;50.988;4.780;2023-03-01T07:33:19;16.92;;;10.88;;
55835;SDS011;66908;50.988;4.780;2023-03-01T07:35:45;18.98;;;11.15;;
55835;SDS011;66908;50.988;4.780;2023-03-01T07:38:11;17.15;;;11.00;;
55835;SDS011;66908;50.988;4.780;2023-03-01T07:40:37;18.30;;;11.40;;
55835;SDS011;66908;50.988;4.780;2023-03-01T07:43:03;18.70;;;10.77;;
55835;SDS011;66908;50.988;4.780;2023-03-01T07:45:28;14.88;;;9.65;;
55835;SDS011;66908;50.988;4.780;2023-03-01T07:47:55;18.55;;;9.38;;
55835;SDS011;66908;50.988;4.780;2023-03-01T07:50:22;17.65;;;9.85;;
55835;SDS011;66908;50.988;4.780;2023-03-01T07:52:49;14.07;;;9.68;;
55835;SDS011;66908;50.988;4.780;2023-03-01T07:55:15;13.87;;;9.33;;
55835;SDS011;66908;50.988;4.780;2023-03-01T07:57:42;14.18;;;9.80;;
55835;SDS011;66908;50.988;4.780;2023-03-01T08:00:10;15.05;;;9.38;;
55835;SDS011;66908;50.988;4.780;2023-03-01T08:02:37;21.30;;;8.80;;
55835;SDS011;66908;50.988;4.780;2023-03-01T08:05:05;14.98;;;9.95;;
55835;SDS011;66908;50.988;4.780;2023-03-01T08:07:32;14.38;;;9.80;;
55835;SDS011;66908;50.988;4.780;2023-03-01T08:09:58;14.02;;;9.10;;
55835;SDS011;66908;50.988;4.780;2023-03-01T08:12:24;14.60;;;9.18;;
55835;SDS011;66908;50.988;4.780;2023-03-01T08:14:52;15.65;;;9.88;;
55835;SDS011;66908;50.988;4.780;2023-03-01T08:17:18;15.23;;;9.20;;
55835;SDS011;66908;50.988;4.780;2023-03-01T08:19:44;12.60;;;9.05;;
55835;SDS011;66908;50.988;4.780;2023-03-01T08:22:11;14.38;;;9.68;;
55835;SDS011;66908;50.988;4.780;2023-03-01T08:24:37;13.30;;;9.38;;
55835;SDS011;66908;50.988;4.780;2023-03-01T08:27:03;13.27;;;9.60;;
55835;SDS011;66908;50.988;4.780;2023-03-01T08:29:32;14.23;;;9.35;;
55835;SDS011;66908;50.988;4.780;2023-03-01T08:31:58;12.18;;;8.95;;
55835;SDS011;66908;50.988;4.780;2023-03-01T08:34:24;16.70;;;9.45;;
55835;SDS011;66908;50.988;4.780;2023-03-01T08:36:51;13.70;;;9.20;;
55835;SDS011;66908;50.988;4.780;2023-03-01T08:39:18;15.57;;;10.40;;
55835;SDS011;66908;50.988;4.780;2023-03-01T08:44:12;14.80;;;10.00;;
55835;SDS011;66908;50.988;4.780;2023-03-01T08:46:40;13.80;;;9.75;;
55835;SDS011;66908;50.988;4.780;2023-03-01T08:51:33;13.85;;;9.45;;
55835;SDS011;66908;50.988;4.780;2023-03-01T08:54:05;12.70;;;7.93;;
55835;SDS011;66908;50.988;4.780;2023-03-01T08:56:33;18.58;;;9.77;;
55835;SDS011;66908;50.988;4.780;2023-03-01T08:58:59;14.15;;;8.70;;
55835;SDS011;66908;50.988;4.780;2023-03-01T09:01:25;13.80;;;9.70;;
55835;SDS011;66908;50.988;4.780;2023-03-01T09:03:51;19.50;;;8.93;;
55835;SDS011;66908;50.988;4.780;2023-03-01T09:06:17;13.68;;;8.98;;
55835;SDS011;66908;50.988;4.780;2023-03-01T09:08:45;16.10;;;9.82;;
55835;SDS011;66908;50.988;4.780;2023-03-01T09:11:13;14.70;;;9.85;;
55835;SDS011;66908;50.988;4.780;2023-03-01T09:13:41;15.60;;;8.50;;
55835;SDS011;66908;50.988;4.780;2023-03-01T09:16:08;14.20;;;9.18;;
55835;SDS011;66908;50.988;4.780;2023-03-01T09:18:36;12.27;;;9.45;;
55835;SDS011;66908;50.988;4.780;2023-03-01T09:21:06;12.70;;;9.13;;
55835;SDS011;66908;50.988;4.780;2023-03-01T09:23:34;10.77;;;7.97;;
55835;SDS011;66908;50.988;4.780;2023-03-01T09:26:03;16.65;;;9.05;;
55835;SDS011;66908;50.988;4.780;2023-03-01T09:28:34;10.65;;;7.65;;
55835;SDS011;66908;50.988;4.780;2023-03-01T09:31:00;10.87;;;8.77;;
55835;SDS011;66908;50.988;4.780;2023-03-01T09:33:28;17.60;;;9.73;;
55835;SDS011;66908;50.988;4.780;2023-03-01T09:35:59;16.30;;;9.85;;
55835;SDS011;66908;50.988;4.780;2023-03-01T09:38:29;13.95;;;9.07;;
55835;SDS011;66908;50.988;4.780;2023-03-01T09:40:56;17.15;;;8.98;;
55835;SDS011;66908;50.988;4.780;2023-03-01T09:46:08;13.32;;;9.05;;
55835;SDS011;66908;50.988;4.780;2023-03-01T09:49:10;14.48;;;8.73;;
55835;SDS011;66908;50.988;4.780;2023-03-01T09:52:34;14.48;;;8.40;;
55835;SDS011;66908;50.988;4.780;2023-03-01T09:54:52;12.57;;;8.88;;
55835;SDS011;66908;50.988;4.780;2023-03-01T09:57:26;12.90;;;9.13;;
55835;SDS011;66908;50.988;4.780;2023-03-01T10:00:03;13.45;;;8.60;;
55835;SDS011;66908;50.988;4.780;2023-03-01T10:10:38;12.60;;;7.97;;
55835;SDS011;66908;50.988;4.780;2023-03-01T10:13:10;12.70;;;7.80;;
55835;SDS011;66908;50.988;4.780;2023-03-01T10:15:50;14.75;;;9.32;;
55835;SDS011;66908;50.988;4.780;2023-03-01T10:18:27;13.55;;;8.20;;
55835;SDS011;66908;50.988;4.780;2023-03-01T10:21:01;12.90;;;8.15;;
55835;SDS011;66908;50.988;4.780;2023-03-01T10:23:33;11.75;;;8.20;;
55835;SDS011;66908;50.988;4.780;2023-03-01T10:26:04;12.15;;;7.97;;
55835;SDS011;66908;50.988;4.780;2023-03-01T10:31:13;10.68;;;7.97;;
55835;SDS011;66908;50.988;4.780;2023-03-01T10:33:43;11.18;;;7.72;;
55835;SDS011;66908;50.988;4.780;2023-03-01T10:36:09;16.00;;;8.23;;
55835;SDS011;66908;50.988;4.780;2023-03-01T10:38:53;15.43;;;9.70;;
55835;SDS011;66908;50.988;4.780;2023-03-01T10:41:23;15.55;;;8.88;;
55835;SDS011;66908;50.988;4.780;2023-03-01T10:49:13;12.77;;;7.97;;
55835;SDS011;66908;50.988;4.780;2023-03-01T10:51:51;13.52;;;8.20;;
55835;SDS011;66908;50.988;4.780;2023-03-01T10:56:57;13.35;;;8.32;;
55835;SDS011;66908;50.988;4.780;2023-03-01T10:59:29;12.18;;;7.70;;
55835;SDS011;66908;50.988;4.780;2023-03-01T11:04:34;12.73;;;8.32;;
55835;SDS011;66908;50.988;4.780;2023-03-01T11:07:00;12.18;;;8.30;;
55835;SDS011;66908;50.988;4.780;2023-03-01T11:09:30;11.45;;;8.50;;
55835;SDS011;66908;50.988;4.780;2023-03-01T11:12:03;14.15;;;8.38;;
55835;SDS011;66908;50.988;4.780;2023-03-01T11:14:38;12.00;;;8.05;;
55835;SDS011;66908;50.988;4.780;2023-03-01T11:22:55;10.63;;;7.68;;
55835;SDS011;66908;50.988;4.780;2023-03-01T11:25:26;14.65;;;7.53;;
55835;SDS011;66908;50.988;4.780;2023-03-01T11:27:54;11.93;;;7.90;;
55835;SDS011;66908;50.988;4.780;2023-03-01T11:35:53;13.90;;;8.30;;
55835;SDS011;66908;50.988;4.780;2023-03-01T11:38:26;13.15;;;8.48;;
55835;SDS011;66908;50.988;4.780;2023-03-01T11:49:02;11.88;;;8.40;;
55835;SDS011;66908;50.988;4.780;2023-03-01T11:57:22;13.18;;;8.30;;
55835;SDS011;66908;50.988;4.780;2023-03-01T12:00:36;15.30;;;8.48;;
55835;SDS011;66908;50.988;4.780;2023-03-01T12:06:38;14.07;;;7.97;;
55835;SDS011;66908;50.988;4.780;2023-03-01T12:12:43;13.40;;;8.85;;
55835;SDS011;66908;50.988;4.780;2023-03-01T12:15:44;13.20;;;7.93;;
55835;SDS011;66908;50.988;4.780;2023-03-01T12:21:17;12.48;;;8.65;;
55835;SDS011;66908;50.988;4.780;2023-03-01T12:26:31;12.93;;;7.32;;
55835;SDS011;66908;50.988;4.780;2023-03-01T12:34:40;10.82;;;7.15;;
55835;SDS011;66908;50.988;4.780;2023-03-01T12:37:42;14.63;;;8.13;;
55835;SDS011;66908;50.988;4.780;2023-03-01T12:46:34;15.02;;;8.30;;
55835;SDS011;66908;50.988;4.780;2023-03-01T12:49:12;13.18;;;8.52;;
55835;SDS011;66908;50.988;4.780;2023-03-01T12:51:50;10.52;;;8.15;;
55835;SDS011;66908;50.988;4.780;2023-03-01T12:54:33;10.48;;;7.28;;
55835;SDS011;66908;50.988;4.780;2023-03-01T13:00:11;12.48;;;8.40;;
55835;SDS011;66908;50.988;4.780;2023-03-01T13:03:04;9.93;;;7.00;;
55835;SDS011;66908;50.988;4.780;2023-03-01T13:08:20;11.75;;;8.32;;
55835;SDS011;66908;50.988;4.780;2023-03-01T13:10:58;13.23;;;7.88;;
55835;SDS011;66908;50.988;4.780;2023-03-01T13:13:28;11.95;;;8.48;;
55835;SDS011;66908;50.988;4.780;2023-03-01T13:15:54;12.73;;;8.38;;
55835;SDS011;66908;50.988;4.780;2023-03-01T13:20:53;12.68;;;8.32;;
55835;SDS011;66908;50.988;4.780;2023-03-01T13:49:47;13.65;;;8.82;;
55835;SDS011;66908;50.988;4.780;2023-03-01T13:54:59;13.43;;;8.55;;
55835;SDS011;66908;50.988;4.780;2023-03-01T13:57:35;13.05;;;8.90;;
55835;SDS011;66908;50.988;4.780;2023-03-01T14:00:06;12.20;;;8.68;;
55835;SDS011;66908;50.988;4.780;2023-03-01T14:02:32;12.40;;;8.67;;
55835;SDS011;66908;50.988;4.780;2023-03-01T14:04:59;13.48;;;8.55;;
55835;SDS011;66908;50.988;4.780;2023-03-01T14:07:26;7.53;;;6.72;;
55835;SDS011;66908;50.988;4.780;2023-03-01T14:09:57;12.30;;;7.93;;
55835;SDS011;66908;50.988;4.780;2023-03-01T14:12:30;12.10;;;8.77;;
55835;SDS011;66908;50.988;4.780;2023-03-01T14:15:04;14.82;;;8.13;;
55835;SDS011;66908;50.988;4.780;2023-03-01T14:22:40;12.75;;;8.77;;
55835;SDS011;66908;50.988;4.780;2023-03-01T14:28:19;10.02;;;7.63;;
55835;SDS011;66908;50.988;4.780;2023-03-01T14:30:59;14.55;;;9.65;;
55835;SDS011;66908;50.988;4.780;2023-03-01T14:33:35;16.48;;;10.48;;
55835;SDS011;66908;50.988;4.780;2023-03-01T14:41:18;11.07;;;8.00;;
55835;SDS011;66908;50.988;4.780;2023-03-01T14:43:47;11.85;;;7.57;;
55835;SDS011;66908;50.988;4.780;2023-03-01T14:48:53;10.35;;;7.18;;
55835;SDS011;66908;50.988;4.780;2023-03-01T14:51:23;11.30;;;9.02;;
55835;SDS011;66908;50.988;4.780;2023-03-01T14:53:49;11.63;;;8.27;;
55835;SDS011;66908;50.988;4.780;2023-03-01T14:56:16;12.82;;;8.27;;
55835;SDS011;66908;50.988;4.780;2023-03-01T14:58:44;9.43;;;6.47;;
55835;SDS011;66908;50.988;4.780;2023-03-01T15:01:13;15.52;;;8.70;;
55835;SDS011;66908;50.988;4.780;2023-03-01T15:03:42;13.23;;;7.95;;
55835;SDS011;66908;50.988;4.780;2023-03-01T15:06:10;13.50;;;8.77;;
55835;SDS011;66908;50.988;4.780;2023-03-01T15:08:41;11.32;;;8.40;;
55835;SDS011;66908;50.988;4.780;2023-03-01T15:13:50;14.77;;;8.32;;
55835;SDS011;66908;50.988;4.780;2023-03-01T15:16:17;17.35;;;8.90;;
55835;SDS011;66908;50.988;4.780;2023-03-01T15:18:46;11.98;;;8.07;;
55835;SDS011;66908;50.988;4.780;2023-03-01T15:21:18;12.85;;;8.05;;
55835;SDS011;66908;50.988;4.780;2023-03-01T15:23:51;14.50;;;8.40;;
55835;SDS011;66908;50.988;4.780;2023-03-01T15:26:23;11.88;;;7.63;;
55835;SDS011;66908;50.988;4.780;2023-03-01T15:28:52;13.73;;;8.25;;
55835;SDS011;66908;50.988;4.780;2023-03-01T15:31:26;9.88;;;6.47;;
55835;SDS011;66908;50.988;4.780;2023-03-01T15:34:08;10.63;;;7.20;;
55835;SDS011;66908;50.988;4.780;2023-03-01T15:36:54;26.13;;;14.18;;
55835;SDS011;66908;50.988;4.780;2023-03-01T15:44:38;12.02;;;7.88;;
55835;SDS011;66908;50.988;4.780;2023-03-01T15:47:23;11.75;;;8.25;;
55835;SDS011;66908;50.988;4.780;2023-03-01T15:49:57;14.68;;;8.07;;
55835;SDS011;66908;50.988;4.780;2023-03-01T15:55:40;12.57;;;8.23;;
55835;SDS011;66908;50.988;4.780;2023-03-01T15:57:46;11.07;;;8.05;;
55835;SDS011;66908;50.988;4.780;2023-03-01T16:00:13;12.02;;;8.40;;
55835;SDS011;66908;50.988;4.780;2023-03-01T16:02:41;10.98;;;8.07;;
55835;SDS011;66908;50.988;4.780;2023-03-01T16:05:24;12.05;;;8.57;;
55835;SDS011;66908;50.988;4.780;2023-03-01T16:07:52;11.77;;;7.75;;
55835;SDS011;66908;50.988;4.780;2023-03-01T16:10:18;8.45;;;7.45;;
55835;SDS011;66908;50.988;4.780;2023-03-01T16:12:44;10.40;;;7.53;;
55835;SDS011;66908;50.988;4.780;2023-03-01T16:15:16;8.80;;;6.93;;
55835;SDS011;66908;50.988;4.780;2023-03-01T16:17:48;10.13;;;7.95;;
55835;SDS011;66908;50.988;4.780;2023-03-01T16:20:14;11.93;;;7.15;;
55835;SDS011;66908;50.988;4.780;2023-03-01T16:22:43;13.35;;;7.82;;
55835;SDS011;66908;50.988;4.780;2023-03-01T16:25:11;13.02;;;8.73;;
55835;SDS011;66908;50.988;4.780;2023-03-01T16:27:41;11.05;;;6.97;;
55835;SDS011;66908;50.988;4.780;2023-03-01T16:30:08;9.43;;;7.10;;
55835;SDS011;66908;50.988;4.780;2023-03-01T16:32:39;12.77;;;7.70;;
55835;SDS011;66908;50.988;4.780;2023-03-01T16:35:06;11.15;;;7.70;;
55835;SDS011;66908;50.988;4.780;2023-03-01T16:37:34;12.15;;;6.90;;
55835;SDS011;66908;50.988;4.780;2023-03-01T16:40:01;9.93;;;7.70;;
55835;SDS011;66908;50.988;4.780;2023-03-01T16:42:32;9.88;;;7.22;;
55835;SDS011;66908;50.988;4.780;2023-03-01T16:45:00;10.57;;;7.63;;
55835;SDS011;66908;50.988;4.780;2023-03-01T16:47:27;9.82;;;7.22;;
55835;SDS011;66908;50.988;4.780;2023-03-01T16:49:53;12.00;;;7.45;;
55835;SDS011;66908;50.988;4.780;2023-03-01T16:52:20;7.88;;;5.65;;
55835;SDS011;66908;50.988;4.780;2023-03-01T16:54:46;10.93;;;7.10;;
55835;SDS011;66908;50.988;4.780;2023-03-01T16:57:12;10.85;;;7.80;;
55835;SDS011;66908;50.988;4.780;2023-03-01T16:59:38;9.50;;;7.28;;
55835;SDS011;66908;50.988;4.780;2023-03-01T17:02:04;13.45;;;7.47;;
55835;SDS011;66908;50.988;4.780;2023-03-01T17:04:34;11.15;;;7.22;;
55835;SDS011;66908;50.988;4.780;2023-03-01T17:07:00;10.13;;;7.10;;
55835;SDS011;66908;50.988;4.780;2023-03-01T17:09:26;10.98;;;7.00;;
55835;SDS011;66908;50.988;4.780;2023-03-01T17:11:52;12.07;;;8.05;;
55835;SDS011;66908;50.988;4.780;2023-03-01T17:14:19;14.45;;;8.52;;
55835;SDS011;66908;50.988;4.780;2023-03-01T17:16:45;12.02;;;7.82;;
55835;SDS011;66908;50.988;4.780;2023-03-01T17:19:11;10.13;;;7.28;;
55835;SDS011;66908;50.988;4.780;2023-03-01T17:21:42;9.38;;;7.03;;
55835;SDS011;66908;50.988;4.780;2023-03-01T17:24:09;10.93;;;7.68;;
55835;SDS011;66908;50.988;4.780;2023-03-01T17:26:34;12.07;;;7.78;;
55835;SDS011;66908;50.988;4.780;2023-03-01T17:29:01;13.85;;;8.13;;
55835;SDS011;66908;50.988;4.780;2023-03-01T17:31:29;13.10;;;7.80;;